createdAt,value
2022-12-19T00:00:30.361Z,101741.66
2022-12-19T00:02:58.151Z,101725.97
2022-12-19T00:05:25.993Z,101714.13
2022-12-19T00:07:54.516Z,101714.91
2022-12-19T00:10:22.305Z,101711.44
2022-12-19T00:12:50.026Z,101711.84
2022-12-19T00:15:17.931Z,101714.16
2022-12-19T00:17:46.972Z,101715.69
2022-12-19T00:20:14.841Z,101714.59
2022-12-19T00:22:46.287Z,101722.28
2022-12-19T00:25:14.113Z,101732.63
2022-12-19T00:27:42.216Z,101727.28
2022-12-19T00:30:11.564Z,101728.47
2022-12-19T00:32:39.681Z,101707.03
2022-12-19T00:35:09.562Z,101701.72
2022-12-19T00:37:37.454Z,101682.56
2022-12-19T00:40:09.435Z,101689.13
2022-12-19T00:42:39.712Z,101699.13
2022-12-19T00:45:10.206Z,101695.75
2022-12-19T00:47:37.950Z,101696.28
2022-12-19T00:50:06.226Z,101689.88
2022-12-19T00:52:35.370Z,101675.69
2022-12-19T00:55:05.030Z,101664.22
2022-12-19T00:57:37.019Z,101656.16
2022-12-19T01:00:06.066Z,101653.09
2022-12-19T01:02:33.959Z,101638.94
2022-12-19T01:05:02.995Z,101647.00
2022-12-19T01:07:30.786Z,101644.31
2022-12-19T01:10:03.130Z,101630.47
2022-12-19T01:12:48.041Z,101624.75
2022-12-19T01:15:18.266Z,101642.41
2022-12-19T01:17:46.080Z,101636.66
2022-12-19T01:20:15.916Z,101635.16
2022-12-19T01:22:43.801Z,101639.00
2022-12-19T01:25:15.897Z,101630.59
2022-12-19T01:27:43.694Z,101646.03
2022-12-19T01:30:13.049Z,101629.16
2022-12-19T01:32:41.487Z,101640.31
2022-12-19T01:35:14.608Z,101613.09
2022-12-19T01:37:49.971Z,101620.38
2022-12-19T01:40:19.663Z,101611.16
2022-12-19T01:42:49.017Z,101596.56
2022-12-19T01:45:43.605Z,101604.63
2022-12-19T01:48:17.808Z,101597.75
2022-12-19T01:51:01.046Z,101613.16
2022-12-19T01:53:36.645Z,101598.19
2022-12-19T01:56:20.625Z,101585.56
2022-12-19T01:58:57.960Z,101589.44
2022-12-19T02:01:50.117Z,101586.41
2022-12-19T02:04:20.900Z,101574.13
2022-12-19T02:06:49.914Z,101568.78
2022-12-19T02:09:18.431Z,101573.06
2022-12-19T02:11:47.598Z,101576.56
2022-12-19T02:14:16.063Z,101588.13
2022-12-19T02:16:55.299Z,101577.41
2022-12-19T02:19:50.685Z,101579.75
2022-12-19T02:22:24.643Z,101549.06
2022-12-19T02:25:20.726Z,101556.00
2022-12-19T02:28:13.460Z,101552.59
2022-12-19T02:31:00.166Z,101550.31
2022-12-19T02:33:41.738Z,101544.22
2022-12-19T02:36:12.041Z,101556.19
2022-12-19T02:38:45.178Z,101546.19
2022-12-19T02:41:21.089Z,101562.34
2022-12-19T02:43:52.832Z,101530.06
2022-12-19T02:46:29.767Z,101520.44
2022-12-19T02:48:58.162Z,101520.09
2022-12-19T02:51:25.953Z,101503.94
2022-12-19T02:53:53.810Z,101512.41
2022-12-19T02:56:34.861Z,101496.66
2022-12-19T02:59:15.794Z,101511.66
2022-12-19T03:01:50.289Z,101488.59
2022-12-19T03:04:32.679Z,101494.34
2022-12-19T03:07:09.127Z,101492.81
2022-12-19T03:09:46.403Z,101493.22
2022-12-19T03:12:20.974Z,101492.84
2022-12-19T03:14:49.892Z,101492.84
2022-12-19T03:17:20.388Z,101488.25
2022-12-19T03:19:48.412Z,101492.88
2022-12-19T03:22:16.266Z,101479.03
2022-12-19T03:24:44.237Z,101480.94
2022-12-19T03:27:16.325Z,101477.09
2022-12-19T03:29:50.643Z,101485.22
2022-12-19T03:32:22.520Z,101489.06
2022-12-19T03:34:54.844Z,101484.03
2022-12-19T03:37:27.105Z,101474.78
2022-12-19T03:39:59.219Z,101470.19
2022-12-19T03:42:47.070Z,101460.97
2022-12-19T03:45:19.666Z,101466.34
2022-12-19T03:47:52.663Z,101477.88
2022-12-19T03:50:20.754Z,101458.66
2022-12-19T03:52:56.058Z,101465.19
2022-12-19T03:55:31.345Z,101462.09
2022-12-19T03:58:05.462Z,101451.31
2022-12-19T04:00:37.608Z,101444.38
2022-12-19T04:03:08.085Z,101442.09
2022-12-19T04:05:39.024Z,101453.63
2022-12-19T04:08:09.015Z,101437.81
2022-12-19T04:10:44.553Z,101442.06
2022-12-19T04:13:17.297Z,101449.38
2022-12-19T04:15:52.478Z,101447.44
2022-12-19T04:18:22.264Z,101441.28
2022-12-19T04:20:54.043Z,101429.34
2022-12-19T04:23:26.713Z,101427.03
2022-12-19T04:26:01.472Z,101434.75
2022-12-19T04:28:34.437Z,101429.34
2022-12-19T04:31:03.869Z,101442.44
2022-12-19T04:33:32.968Z,101436.28
2022-12-19T04:36:01.238Z,101439.34
2022-12-19T04:38:29.040Z,101432.41
2022-12-19T04:40:56.798Z,101431.63
2022-12-19T04:43:24.954Z,101422.38
2022-12-19T04:45:57.101Z,101426.22
2022-12-19T04:48:26.044Z,101432.78
2022-12-19T04:50:56.229Z,101430.44
2022-12-19T04:53:24.371Z,101407.34
2022-12-19T04:55:52.124Z,101413.47
2022-12-19T04:58:22.055Z,101431.59
2022-12-19T05:00:49.981Z,101416.13
2022-12-19T05:03:17.829Z,101417.66
2022-12-19T05:05:45.582Z,101408.38
2022-12-19T05:08:14.699Z,101409.56
2022-12-19T05:10:42.408Z,101407.63
2022-12-19T05:13:10.491Z,101409.16
2022-12-19T05:15:38.309Z,101402.97
2022-12-19T05:18:06.216Z,101405.63
2022-12-19T05:20:34.390Z,101394.81
2022-12-19T05:23:05.758Z,101400.56
2022-12-19T05:25:37.145Z,101396.31
2022-12-19T05:28:05.240Z,101389.72
2022-12-19T05:30:33.000Z,101388.94
2022-12-19T05:33:01.338Z,101386.59
2022-12-19T05:35:29.098Z,101383.91
2022-12-19T05:37:56.884Z,101385.03
2022-12-19T05:40:24.685Z,101393.88
2022-12-19T05:42:53.882Z,101384.19
2022-12-19T05:45:22.276Z,101394.97
2022-12-19T05:47:50.184Z,101387.25
2022-12-19T05:50:19.069Z,101383.75
2022-12-19T05:52:51.974Z,101395.31
2022-12-19T05:55:20.158Z,101396.44
2022-12-19T05:57:47.859Z,101391.38
2022-12-19T06:00:17.922Z,101395.56
2022-12-19T06:02:45.756Z,101398.22
2022-12-19T06:05:13.589Z,101393.53
2022-12-19T06:07:41.612Z,101391.16
2022-12-19T06:10:09.565Z,101395.75
2022-12-19T06:12:37.314Z,101402.63
2022-12-19T06:15:05.560Z,101402.56
2022-12-19T06:17:34.721Z,101397.88
2022-12-19T06:20:02.559Z,101392.31
2022-12-19T06:22:30.308Z,101390.28
2022-12-19T06:24:58.042Z,101385.16
2022-12-19T06:27:25.794Z,101381.97
2022-12-19T06:29:53.510Z,101376.13
2022-12-19T06:32:21.262Z,101383.34
2022-12-19T06:35:05.626Z,101392.94
2022-12-19T06:37:33.471Z,101386.69
2022-12-19T06:40:01.273Z,101380.81
2022-12-19T06:42:28.033Z,101395.00
2022-12-19T06:44:56.829Z,101381.44
2022-12-19T06:47:25.977Z,101378.66
2022-12-19T06:49:55.120Z,101397.94
2022-12-19T06:52:22.871Z,101375.09
2022-12-19T06:54:50.692Z,101400.97
2022-12-19T06:57:18.578Z,101381.59
2022-12-19T06:59:46.336Z,101379.63
2022-12-19T07:02:25.683Z,101402.41
2022-12-19T07:05:01.569Z,101376.81
2022-12-19T07:07:29.915Z,101385.28
2022-12-19T07:09:57.724Z,101396.44
2022-12-19T07:12:25.515Z,101383.16
2022-12-19T07:14:53.844Z,101402.06
2022-12-19T07:17:23.473Z,101385.00
2022-12-19T07:19:54.478Z,101404.69
2022-12-19T07:22:24.726Z,101399.63
2022-12-19T07:24:52.709Z,101409.72
2022-12-19T07:27:20.537Z,101395.34
2022-12-19T07:29:48.312Z,101401.88
2022-12-19T07:32:16.056Z,101405.72
2022-12-19T07:34:43.810Z,101402.59
2022-12-19T07:37:11.551Z,101412.69
2022-12-19T07:39:40.637Z,101412.59
2022-12-19T07:42:08.405Z,101408.34
2022-12-19T07:44:39.541Z,101407.09
2022-12-19T07:47:10.038Z,101410.56
2022-12-19T07:49:37.885Z,101421.41
2022-12-19T07:52:05.670Z,101416.34
2022-12-19T07:54:33.481Z,101420.19
2022-12-19T07:57:02.883Z,101412.41
2022-12-19T07:59:35.655Z,101412.00
2022-12-19T08:02:07.244Z,101418.16
2022-12-19T08:04:36.104Z,101406.88
2022-12-19T08:07:03.843Z,101415.34
2022-12-19T08:09:31.680Z,101416.91
2022-12-19T08:11:59.824Z,101421.50
2022-12-19T08:14:29.233Z,101419.91
2022-12-19T08:17:19.702Z,101413.63
2022-12-19T08:19:44.757Z,101426.41
2022-12-19T08:22:12.578Z,101422.84
2022-12-19T08:24:40.374Z,101429.78
2022-12-19T08:27:08.104Z,101426.28
2022-12-19T08:29:37.209Z,101436.69
2022-12-19T08:32:05.238Z,101442.91
2022-12-19T08:34:33.400Z,101430.44
2022-12-19T08:37:01.150Z,101434.28
2022-12-19T08:39:28.865Z,101432.34
2022-12-19T08:41:56.565Z,101443.91
2022-12-19T08:44:24.504Z,101438.47
2022-12-19T08:46:53.650Z,101439.22
2022-12-19T08:49:21.592Z,101443.47
2022-12-19T08:51:49.734Z,101443.81
2022-12-19T08:54:17.486Z,101439.94
2022-12-19T08:56:46.691Z,101444.16
2022-12-19T08:59:20.495Z,101438.34
2022-12-19T09:02:01.287Z,101437.16
2022-12-19T09:06:01.830Z,101440.66
2022-12-19T09:07:17.224Z,101442.16
2022-12-19T09:09:45.082Z,101443.38
2022-12-19T09:12:13.280Z,101448.78
2022-12-19T09:14:41.152Z,101444.88
2022-12-19T09:17:10.365Z,101440.97
2022-12-19T09:19:38.150Z,101446.00
2022-12-19T09:22:06.823Z,101443.63
2022-12-19T09:24:34.554Z,101455.59
2022-12-19T09:27:02.859Z,101459.09
2022-12-19T09:29:35.085Z,101464.09
2022-12-19T09:32:03.439Z,101465.63
2022-12-19T09:34:37.355Z,101462.50
2022-12-19T09:37:06.557Z,101455.88
2022-12-19T09:39:35.372Z,101461.31
2022-12-19T09:42:16.210Z,101469.03
2022-12-19T09:44:58.875Z,101464.31
2022-12-19T09:47:31.663Z,101479.41
2022-12-19T09:50:02.572Z,101464.69
2022-12-19T09:52:34.884Z,101463.84
2022-12-19T09:55:07.627Z,101460.38
2022-12-19T09:57:42.431Z,101463.09
2022-12-19T10:00:14.713Z,101472.34
2022-12-19T10:02:48.328Z,101469.63
2022-12-19T10:06:34.036Z,101463.78
2022-12-19T10:08:18.107Z,101462.19
2022-12-19T10:12:38.035Z,101446.56
2022-12-19T10:14:02.958Z,101459.34
2022-12-19T10:16:41.598Z,101463.16
2022-12-19T10:19:11.094Z,101466.59
2022-12-19T10:25:09.271Z,101468.31
2022-12-19T10:27:59.698Z,101451.53
2022-12-19T10:30:31.777Z,101451.88
2022-12-19T10:33:14.750Z,101445.19
2022-12-19T10:35:55.249Z,101441.63
2022-12-19T10:38:32.983Z,101443.19
2022-12-19T10:41:16.256Z,101440.47
2022-12-19T10:43:53.960Z,101435.84
2022-12-19T10:46:31.515Z,101453.25
2022-12-19T10:49:03.393Z,101441.97
2022-12-19T10:51:33.127Z,101438.50
2022-12-19T10:54:02.232Z,101444.69
2022-12-19T10:56:37.173Z,101449.72
2022-12-19T10:59:17.505Z,101446.66
2022-12-19T11:01:45.706Z,101462.94
2022-12-19T11:04:31.699Z,101447.00
2022-12-19T11:07:18.870Z,101444.28
2022-12-19T11:10:15.899Z,101451.22
2022-12-19T11:17:00.506Z,101439.97
2022-12-19T11:18:56.715Z,101434.53
2022-12-19T11:25:28.495Z,101455.84
2022-12-19T11:29:25.113Z,101431.72
2022-12-19T11:30:41.543Z,101434.03
2022-12-19T11:30:46.250Z,101426.28
2022-12-19T11:32:42.247Z,101412.13
2022-12-19T11:35:24.699Z,101405.84
2022-12-19T11:37:57.203Z,101410.47
2022-12-19T11:40:34.066Z,101416.25
2022-12-19T11:43:43.018Z,101425.50
2022-12-19T11:46:03.728Z,101432.78
2022-12-19T11:48:38.529Z,101419.56
2022-12-19T11:51:15.878Z,101425.00
2022-12-19T11:53:50.411Z,101433.91
2022-12-19T11:56:21.752Z,101435.00
2022-12-19T11:58:54.998Z,101430.78
2022-12-19T12:01:42.213Z,101436.97
2022-12-19T12:04:47.535Z,101435.78
2022-12-19T12:07:39.857Z,101421.69
2022-12-19T12:15:37.080Z,101432.56
2022-12-19T12:20:57.685Z,101431.78
2022-12-19T12:28:41.631Z,101427.13
2022-12-19T12:31:12.016Z,101409.28
2022-12-19T12:31:31.951Z,101406.91
2022-12-19T12:31:39.469Z,101385.00
2022-12-19T12:31:42.621Z,101387.03
2022-12-19T12:31:50.627Z,101396.78
2022-12-19T12:35:56.312Z,101392.38
2022-12-19T12:39:52.123Z,101385.34
2022-12-19T12:42:34.341Z,101383.72
2022-12-19T12:45:16.329Z,101364.28
2022-12-19T12:47:45.350Z,101367.75
2022-12-19T12:50:18.204Z,101371.97
2022-12-19T12:52:49.247Z,101360.69
2022-12-19T12:55:21.997Z,101352.19
2022-12-19T12:57:49.775Z,101354.84
2022-12-19T13:00:25.157Z,101348.13
2022-12-19T13:02:57.291Z,101353.13
2022-12-19T13:05:39.389Z,101339.09
2022-12-19T13:08:36.205Z,101345.31
2022-12-19T13:11:06.954Z,101329.31
2022-12-19T13:13:53.454Z,101343.78
2022-12-19T13:16:49.766Z,101338.69
2022-12-19T13:19:25.794Z,101345.75
2022-12-19T13:22:41.324Z,101341.91
2022-12-19T13:25:45.287Z,101333.00
2022-12-19T13:28:42.891Z,101333.25
2022-12-19T13:31:20.529Z,101325.16
2022-12-19T13:34:20.147Z,101328.31
2022-12-19T13:39:49.404Z,101305.03
2022-12-19T13:40:01.729Z,101305.47
2022-12-19T13:42:59.463Z,101296.13
2022-12-19T13:45:41.945Z,101302.31
2022-12-19T13:48:16.249Z,101292.19
2022-12-19T13:50:47.660Z,101296.47
2022-12-19T13:53:18.349Z,101292.13
2022-12-19T13:55:47.756Z,101287.84
2022-12-19T13:58:29.455Z,101275.13
2022-12-19T14:01:02.275Z,101277.78
2022-12-19T14:03:39.084Z,101284.31
2022-12-19T14:06:18.738Z,101262.09
2022-12-19T14:10:02.882Z,101273.44
2022-12-19T14:13:38.608Z,101281.25
2022-12-19T14:14:58.095Z,101287.84
2022-12-19T14:17:37.829Z,101286.25
2022-12-19T14:22:02.528Z,101279.69
2022-12-19T14:23:06.418Z,101278.94
2022-12-19T14:28:18.617Z,101277.44
2022-12-19T14:28:32.602Z,101274.78
2022-12-19T14:31:03.889Z,101279.13
2022-12-19T14:33:44.186Z,101267.09
2022-12-19T14:36:26.194Z,101269.00
2022-12-19T14:39:23.615Z,101265.53
2022-12-19T14:42:04.111Z,101258.94
2022-12-19T14:52:53.663Z,101267.50
2022-12-19T14:54:07.298Z,101277.97
2022-12-19T14:54:09.038Z,101265.53
2022-12-19T14:54:31.364Z,101267.50
2022-12-19T14:56:29.077Z,101269.81
2022-12-19T14:58:59.683Z,101276.00
2022-12-19T15:01:32.001Z,101276.00
2022-12-19T15:04:53.510Z,101284.56
2022-12-19T15:07:07.694Z,101290.34
2022-12-19T15:11:02.799Z,101286.13
2022-12-19T15:14:48.944Z,101293.81
2022-12-19T15:15:59.057Z,101294.28
2022-12-19T15:18:29.283Z,101301.56
2022-12-19T15:20:59.250Z,101303.84
2022-12-19T15:23:27.650Z,101299.59
2022-12-19T15:26:06.190Z,101310.13
2022-12-19T15:28:42.022Z,101328.06
2022-12-19T15:31:23.404Z,101324.81
2022-12-19T15:34:33.579Z,101319.41
2022-12-19T15:36:40.421Z,101322.13
2022-12-19T15:39:08.263Z,101306.56
2022-12-19T15:41:36.527Z,101312.78
2022-12-19T15:44:09.927Z,101304.63
2022-12-19T15:46:41.341Z,101300.28
2022-12-19T15:49:17.107Z,101299.84
2022-12-19T15:51:44.926Z,101290.16
2022-12-19T15:54:47.164Z,101293.75
2022-12-19T15:57:00.558Z,101285.66
2022-12-19T15:59:37.834Z,101283.06
2022-12-19T16:02:17.104Z,101297.06
2022-12-19T16:04:47.339Z,101294.34
2022-12-19T16:07:17.731Z,101293.59
2022-12-19T16:09:45.579Z,101294.00
2022-12-19T16:12:16.498Z,101279.66
2022-12-19T16:14:45.779Z,101280.53
2022-12-19T16:17:18.965Z,101281.00
2022-12-19T16:19:48.292Z,101282.22
2022-12-19T16:22:19.394Z,101284.94
2022-12-19T16:24:47.205Z,101285.69
2022-12-19T16:27:22.211Z,101301.66
2022-12-19T16:29:50.143Z,101304.31
2022-12-19T16:32:18.645Z,101316.69
2022-12-19T16:34:48.099Z,101311.59
2022-12-19T16:37:15.851Z,101320.84
2022-12-19T16:39:43.823Z,101304.47
2022-12-19T16:42:16.120Z,101318.41
2022-12-19T16:44:45.712Z,101308.97
2022-12-19T16:47:15.133Z,101308.09
2022-12-19T16:49:44.541Z,101294.84
2022-12-19T16:52:13.818Z,101284.66
2022-12-19T16:54:41.785Z,101286.56
2022-12-19T16:57:19.251Z,101286.16
2022-12-19T16:59:47.333Z,101275.97
2022-12-19T17:02:36.598Z,101277.81
2022-12-19T17:05:05.263Z,101285.56
2022-12-19T17:07:34.401Z,101280.00
2022-12-19T17:10:02.116Z,101272.59
2022-12-19T17:12:30.031Z,101274.03
2022-12-19T17:14:57.860Z,101280.25
2022-12-19T17:17:25.821Z,101278.09
2022-12-19T17:19:53.710Z,101273.34
2022-12-19T17:22:21.610Z,101278.50
2022-12-19T17:24:51.044Z,101262.81
2022-12-19T17:27:19.274Z,101275.69
2022-12-19T17:29:47.498Z,101280.16
2022-12-19T17:32:23.206Z,101276.28
2022-12-19T17:34:52.829Z,101292.91
2022-12-19T17:37:20.653Z,101288.78
2022-12-19T17:39:49.754Z,101287.50
2022-12-19T17:42:22.607Z,101289.00
2022-12-19T17:44:50.350Z,101288.59
2022-12-19T17:47:21.049Z,101286.75
2022-12-19T17:49:49.670Z,101280.19
2022-12-19T17:52:19.493Z,101290.75
2022-12-19T17:54:47.457Z,101292.81
2022-12-19T17:57:17.870Z,101293.56
2022-12-19T17:59:46.578Z,101298.59
2022-12-19T18:02:25.124Z,101301.31
2022-12-19T18:04:53.730Z,101300.31
2022-12-19T18:07:21.648Z,101300.66
2022-12-19T18:09:49.415Z,101296.63
2022-12-19T18:12:18.564Z,101296.22
2022-12-19T18:14:46.328Z,101294.34
2022-12-19T18:17:17.123Z,101303.78
2022-12-19T18:19:44.939Z,101298.13
2022-12-19T18:22:13.897Z,101301.94
2022-12-19T18:24:41.919Z,101296.09
2022-12-19T18:27:09.739Z,101298.59
2022-12-19T18:29:38.884Z,101291.53
2022-12-19T18:32:06.698Z,101284.03
2022-12-19T18:34:35.528Z,101281.16
2022-12-19T18:37:05.420Z,101287.06
2022-12-19T18:39:34.119Z,101285.53
2022-12-19T18:42:02.185Z,101276.94
2022-12-19T18:44:30.050Z,101287.28
2022-12-19T18:46:59.276Z,101278.22
2022-12-19T18:49:28.685Z,101278.56
2022-12-19T18:51:56.544Z,101272.38
2022-12-19T18:54:24.315Z,101274.97
2022-12-19T18:56:52.889Z,101279.44
2022-12-19T18:59:20.620Z,101280.22
2022-12-19T19:01:48.655Z,101280.97
2022-12-19T19:04:18.582Z,101289.03
2022-12-19T19:06:51.660Z,101299.81
2022-12-19T19:09:21.372Z,101295.78
2022-12-19T19:12:07.647Z,101304.94
2022-12-19T19:14:35.404Z,101298.50
2022-12-19T19:17:05.420Z,101301.22
2022-12-19T19:19:34.675Z,101303.53
2022-12-19T19:22:02.515Z,101307.00
2022-12-19T19:24:30.513Z,101320.19
2022-12-19T19:26:58.267Z,101337.84
2022-12-19T19:29:26.024Z,101324.34
2022-12-19T19:31:54.028Z,101323.47
2022-12-19T19:34:24.575Z,101327.16
2022-12-19T19:36:56.415Z,101338.06
2022-12-19T19:39:24.837Z,101350.50
2022-12-19T19:41:53.563Z,101340.25
2022-12-19T19:44:21.308Z,101337.41
2022-12-19T19:46:49.272Z,101348.66
2022-12-19T19:49:17.135Z,101342.75
2022-12-19T19:51:44.908Z,101335.34
2022-12-19T19:54:14.102Z,101342.88
2022-12-19T19:56:41.931Z,101346.56
2022-12-19T19:59:09.698Z,101346.38
2022-12-19T20:01:37.675Z,101343.31
2022-12-19T20:04:06.052Z,101353.44
2022-12-19T20:06:33.835Z,101348.31
2022-12-19T20:09:01.634Z,101351.81
2022-12-19T20:11:30.923Z,101352.25
2022-12-19T20:13:58.683Z,101348.53
2022-12-19T20:16:26.536Z,101339.50
2022-12-19T20:18:54.319Z,101342.66
2022-12-19T20:21:23.927Z,101345.50
2022-12-19T20:23:51.700Z,101332.63
2022-12-19T20:26:20.199Z,101342.31
2022-12-19T20:28:51.252Z,101343.06
2022-12-19T20:31:19.480Z,101339.25
2022-12-19T20:33:48.416Z,101342.88
2022-12-19T20:36:17.229Z,101346.13
2022-12-19T20:38:45.244Z,101339.16
2022-12-19T20:41:13.131Z,101340.78
2022-12-19T20:43:41.396Z,101334.38
2022-12-19T20:46:13.724Z,101336.00
2022-12-19T20:48:41.871Z,101328.25
2022-12-19T20:51:10.469Z,101328.69
2022-12-19T20:53:39.521Z,101332.50
2022-12-19T20:56:09.228Z,101342.28
2022-12-19T20:58:39.006Z,101337.72
2022-12-19T21:01:09.205Z,101333.78
2022-12-19T21:03:39.312Z,101338.06
2022-12-19T21:06:08.806Z,101348.63
2022-12-19T21:08:37.633Z,101340.88
2022-12-19T21:11:07.193Z,101336.19
2022-12-19T21:13:35.563Z,101339.69
2022-12-19T21:16:08.526Z,101350.25
2022-12-19T21:18:42.921Z,101336.31
2022-12-19T21:21:19.316Z,101330.53
2022-12-19T21:23:48.640Z,101329.22
2022-12-19T21:26:16.381Z,101336.75
2022-12-19T21:28:44.885Z,101333.81
2022-12-19T21:31:18.381Z,101338.28
2022-12-19T21:33:48.061Z,101331.22
2022-12-19T21:36:19.037Z,101332.31
2022-12-19T21:38:46.960Z,101337.00
2022-12-19T21:41:18.991Z,101340.13
2022-12-19T21:43:48.687Z,101344.72
2022-12-19T21:46:18.260Z,101324.66
2022-12-19T21:48:49.505Z,101343.19
2022-12-19T21:51:19.476Z,101343.09
2022-12-19T21:53:48.059Z,101323.25
2022-12-19T21:56:24.342Z,101322.03
2022-12-19T21:58:53.209Z,101342.22
2022-12-19T22:01:21.653Z,101342.22
2022-12-19T22:03:51.811Z,101338.28
2022-12-19T22:06:27.748Z,101340.25
2022-12-19T22:08:56.540Z,101337.41
2022-12-19T22:11:25.463Z,101329.25
2022-12-19T22:13:54.172Z,101329.34
2022-12-19T22:16:22.048Z,101330.56
2022-12-19T22:18:52.974Z,101315.72
2022-12-19T22:21:21.533Z,101312.97
2022-12-19T22:23:49.339Z,101298.38
2022-12-19T22:26:19.469Z,101307.00
2022-12-19T22:28:48.894Z,101295.00
2022-12-19T22:31:19.199Z,101302.00
2022-12-19T22:33:48.335Z,101299.59
2022-12-19T22:36:23.982Z,101293.69
2022-12-19T22:38:56.857Z,101295.66
2022-12-19T22:41:24.881Z,101294.56
2022-12-19T22:43:53.429Z,101302.31
2022-12-19T22:46:23.448Z,101291.84
2022-12-19T22:48:51.769Z,101295.00
2022-12-19T22:51:21.364Z,101283.78
2022-12-19T22:53:49.893Z,101273.53
2022-12-19T22:56:19.743Z,101272.66
2022-12-19T22:58:51.079Z,101268.06
2022-12-19T23:01:23.418Z,101267.44
2022-12-19T23:03:53.727Z,101264.81
2022-12-19T23:06:24.559Z,101260.78
2022-12-19T23:08:52.747Z,101257.28
2022-12-19T23:11:23.867Z,101267.13
2022-12-19T23:13:52.159Z,101272.09
2022-12-19T23:16:20.082Z,101275.63
2022-12-19T23:18:47.947Z,101286.63
2022-12-19T23:21:17.339Z,101281.16
2022-12-19T23:23:50.227Z,101281.50
2022-12-19T23:26:20.136Z,101288.91
2022-12-19T23:28:51.785Z,101292.81
2022-12-19T23:31:19.620Z,101288.91
2022-12-19T23:33:47.494Z,101298.84
2022-12-19T23:36:15.532Z,101289.13
2022-12-19T23:38:44.741Z,101284.00
2022-12-19T23:41:16.012Z,101269.81
2022-12-19T23:43:43.893Z,101269.38
2022-12-19T23:46:16.185Z,101278.19
2022-12-19T23:48:44.545Z,101277.41
2022-12-19T23:51:14.401Z,101273.50
2022-12-19T23:53:42.470Z,101259.88
2022-12-19T23:56:14.889Z,101259.88
2022-12-19T23:58:42.804Z,101242.31
